sensor_id;sensor_type;location;lat;lon;timestamp;pressure;altitude;pressure_sealevel;temperature;humidity
75136;BME280;63707;52.212;9.540;2023-03-01T00:01:45;101549.19;;;-3.22;100.00
75136;BME280;63707;52.212;9.540;2023-03-01T00:04:12;101540.38;;;-2.91;100.00
75136;BME280;63707;52.212;9.540;2023-03-01T00:06:38;101546.00;;;-3.12;100.00
75136;BME280;63707;52.212;9.540;2023-03-01T00:09:03;101540.88;;;-3.33;100.00
75136;BME280;63707;52.212;9.540;2023-03-01T00:11:30;101550.81;;;-3.36;100.00
75136;BME280;63707;52.212;9.540;2023-03-01T00:13:58;101541.59;;;-3.29;100.00
75136;BME280;63707;52.212;9.540;2023-03-01T00:16:25;101543.09;;;-3.08;100.00
75136;BME280;63707;52.212;9.540;2023-03-01T00:18:51;101549.25;;;-3.23;100.00
75136;BME280;63707;52.212;9.540;2023-03-01T00:21:20;101545.81;;;-3.25;100.00
75136;BME280;63707;52.212;9.540;2023-03-01T00:23:46;101543.59;;;-3.17;100.00
75136;BME280;63707;52.212;9.540;2023-03-01T00:26:14;101553.47;;;-3.19;100.00
75136;BME280;63707;52.212;9.540;2023-03-01T00:28:42;101550.13;;;-3.40;100.00
75136;BME280;63707;52.212;9.540;2023-03-01T00:31:09;101551.09;;;-3.58;100.00
75136;BME280;63707;52.212;9.540;2023-03-01T00:33:35;101557.28;;;-3.58;100.00
75136;BME280;63707;52.212;9.540;2023-03-01T00:36:01;101554.75;;;-3.43;100.00
75136;BME280;63707;52.212;9.540;2023-03-01T00:38:28;101562.66;;;-3.42;100.00
75136;BME280;63707;52.212;9.540;2023-03-01T00:40:54;101551.38;;;-3.30;100.00
75136;BME280;63707;52.212;9.540;2023-03-01T00:43:19;101554.84;;;-3.62;100.00
75136;BME280;63707;52.212;9.540;2023-03-01T00:45:45;101554.84;;;-3.97;100.00
75136;BME280;63707;52.212;9.540;2023-03-01T00:48:10;101545.53;;;-3.71;100.00
75136;BME280;63707;52.212;9.540;2023-03-01T00:50:36;101539.75;;;-3.62;100.00
75136;BME280;63707;52.212;9.540;2023-03-01T00:53:01;101534.97;;;-3.72;100.00
75136;BME280;63707;52.212;9.540;2023-03-01T00:55:28;101528.84;;;-3.92;100.00
75136;BME280;63707;52.212;9.540;2023-03-01T00:57:54;101526.13;;;-3.73;100.00
75136;BME280;63707;52.212;9.540;2023-03-01T01:00:20;101527.66;;;-3.86;100.00
75136;BME280;63707;52.212;9.540;2023-03-01T01:02:46;101534.16;;;-3.92;100.00
75136;BME280;63707;52.212;9.540;2023-03-01T01:05:13;101533.69;;;-4.00;100.00
75136;BME280;63707;52.212;9.540;2023-03-01T01:07:38;101533.50;;;-3.78;100.00
75136;BME280;63707;52.212;9.540;2023-03-01T01:10:05;101534.16;;;-4.09;100.00
75136;BME280;63707;52.212;9.540;2023-03-01T01:12:32;101531.75;;;-3.96;100.00
75136;BME280;63707;52.212;9.540;2023-03-01T01:14:58;101539.97;;;-3.84;100.00
75136;BME280;63707;52.212;9.540;2023-03-01T01:17:24;101528.59;;;-3.87;100.00
75136;BME280;63707;52.212;9.540;2023-03-01T01:19:49;101536.81;;;-4.09;100.00
75136;BME280;63707;52.212;9.540;2023-03-01T01:22:15;101531.44;;;-4.07;100.00
75136;BME280;63707;52.212;9.540;2023-03-01T01:24:40;101526.50;;;-4.34;100.00
75136;BME280;63707;52.212;9.540;2023-03-01T01:27:05;101526.34;;;-3.95;100.00
75136;BME280;63707;52.212;9.540;2023-03-01T01:29:33;101533.31;;;-3.92;100.00
75136;BME280;63707;52.212;9.540;2023-03-01T01:31:59;101526.41;;;-4.14;100.00
75136;BME280;63707;52.212;9.540;2023-03-01T01:34:24;101524.47;;;-4.29;100.00
75136;BME280;63707;52.212;9.540;2023-03-01T01:36:51;101519.28;;;-3.96;100.00
75136;BME280;63707;52.212;9.540;2023-03-01T01:39:18;101517.25;;;-4.08;100.00
75136;BME280;63707;52.212;9.540;2023-03-01T01:41:44;101507.94;;;-3.99;100.00
75136;BME280;63707;52.212;9.540;2023-03-01T01:44:12;101507.22;;;-4.20;100.00
75136;BME280;63707;52.212;9.540;2023-03-01T01:46:41;101510.28;;;-4.10;100.00
75136;BME280;63707;52.212;9.540;2023-03-01T01:49:15;101504.31;;;-3.81;100.00
75136;BME280;63707;52.212;9.540;2023-03-01T01:51:44;101504.41;;;-4.00;100.00
75136;BME280;63707;52.212;9.540;2023-03-01T01:54:14;101503.47;;;-3.99;100.00
75136;BME280;63707;52.212;9.540;2023-03-01T01:56:44;101500.78;;;-4.33;100.00
75136;BME280;63707;52.212;9.540;2023-03-01T01:59:11;101510.56;;;-4.34;100.00
75136;BME280;63707;52.212;9.540;2023-03-01T02:01:37;101508.28;;;-4.41;100.00
75136;BME280;63707;52.212;9.540;2023-03-01T02:04:04;101509.31;;;-4.63;100.00
75136;BME280;63707;52.212;9.540;2023-03-01T02:06:34;101507.03;;;-4.34;100.00
75136;BME280;63707;52.212;9.540;2023-03-01T02:09:04;101510.06;;;-4.42;100.00
75136;BME280;63707;52.212;9.540;2023-03-01T02:11:32;101506.63;;;-4.44;100.00
75136;BME280;63707;52.212;9.540;2023-03-01T02:13:58;101508.19;;;-4.40;100.00
75136;BME280;63707;52.212;9.540;2023-03-01T02:16:25;101501.16;;;-4.41;100.00
75136;BME280;63707;52.212;9.540;2023-03-01T02:18:51;101500.59;;;-4.48;100.00
75136;BME280;63707;52.212;9.540;2023-03-01T02:21:38;101495.28;;;-4.48;100.00
75136;BME280;63707;52.212;9.540;2023-03-01T02:24:13;101502.69;;;-4.54;100.00
75136;BME280;63707;52.212;9.540;2023-03-01T02:26:47;101498.75;;;-4.83;100.00
75136;BME280;63707;52.212;9.540;2023-03-01T02:29:15;101485.97;;;-4.56;100.00
75136;BME280;63707;52.212;9.540;2023-03-01T02:31:40;101493.66;;;-4.69;100.00
75136;BME280;63707;52.212;9.540;2023-03-01T02:34:11;101487.19;;;-4.63;100.00
75136;BME280;63707;52.212;9.540;2023-03-01T02:36:39;101483.16;;;-4.53;100.00
75136;BME280;63707;52.212;9.540;2023-03-01T02:39:08;101475.25;;;-4.55;100.00
75136;BME280;63707;52.212;9.540;2023-03-01T02:41:42;101478.19;;;-4.61;100.00
75136;BME280;63707;52.212;9.540;2023-03-01T02:44:08;101477.28;;;-4.79;100.00
75136;BME280;63707;52.212;9.540;2023-03-01T02:46:42;101471.88;;;-4.58;100.00
75136;BME280;63707;52.212;9.540;2023-03-01T02:49:18;101475.88;;;-4.50;100.00
75136;BME280;63707;52.212;9.540;2023-03-01T02:51:52;101467.81;;;-4.84;100.00
75136;BME280;63707;52.212;9.540;2023-03-01T02:54:22;101460.97;;;-4.71;100.00
75136;BME280;63707;52.212;9.540;2023-03-01T02:56:50;101450.97;;;-4.66;100.00
75136;BME280;63707;52.212;9.540;2023-03-01T02:59:18;101445.72;;;-4.67;100.00
75136;BME280;63707;52.212;9.540;2023-03-01T03:01:45;101448.25;;;-4.83;100.00
75136;BME280;63707;52.212;9.540;2023-03-01T03:04:14;101453.88;;;-4.70;100.00
75136;BME280;63707;52.212;9.540;2023-03-01T03:06:42;101459.53;;;-4.42;100.00
75136;BME280;63707;52.212;9.540;2023-03-01T03:09:08;101459.91;;;-4.67;100.00
75136;BME280;63707;52.212;9.540;2023-03-01T03:11:33;101457.78;;;-4.60;100.00
75136;BME280;63707;52.212;9.540;2023-03-01T03:13:59;101453.03;;;-4.54;100.00
75136;BME280;63707;52.212;9.540;2023-03-01T03:16:24;101453.81;;;-4.52;100.00
75136;BME280;63707;52.212;9.540;2023-03-01T03:18:51;101441.16;;;-4.12;100.00
75136;BME280;63707;52.212;9.540;2023-03-01T03:21:16;101440.31;;;-4.13;100.00
75136;BME280;63707;52.212;9.540;2023-03-01T03:23:42;101432.03;;;-4.24;100.00
75136;BME280;63707;52.212;9.540;2023-03-01T03:26:08;101430.56;;;-4.48;100.00
75136;BME280;63707;52.212;9.540;2023-03-01T03:28:34;101435.03;;;-4.66;100.00
75136;BME280;63707;52.212;9.540;2023-03-01T03:31:00;101430.50;;;-4.64;100.00
75136;BME280;63707;52.212;9.540;2023-03-01T03:33:28;101430.25;;;-4.95;100.00
75136;BME280;63707;52.212;9.540;2023-03-01T03:35:55;101428.22;;;-4.71;100.00
75136;BME280;63707;52.212;9.540;2023-03-01T03:38:21;101425.97;;;-4.81;100.00
75136;BME280;63707;52.212;9.540;2023-03-01T03:40:49;101432.31;;;-4.83;100.00
75136;BME280;63707;52.212;9.540;2023-03-01T03:43:16;101429.28;;;-4.76;100.00
75136;BME280;63707;52.212;9.540;2023-03-01T03:45:44;101429.00;;;-4.69;100.00
75136;BME280;63707;52.212;9.540;2023-03-01T03:48:10;101425.25;;;-4.65;100.00
75136;BME280;63707;52.212;9.540;2023-03-01T03:50:35;101426.50;;;-4.72;100.00
75136;BME280;63707;52.212;9.540;2023-03-01T03:53:04;101422.59;;;-4.84;100.00
75136;BME280;63707;52.212;9.540;2023-03-01T03:55:31;101424.06;;;-4.96;100.00
75136;BME280;63707;52.212;9.540;2023-03-01T03:57:59;101436.00;;;-5.04;100.00
75136;BME280;63707;52.212;9.540;2023-03-01T04:00:27;101430.97;;;-4.38;100.00
75136;BME280;63707;52.212;9.540;2023-03-01T04:02:53;101429.09;;;-4.54;100.00
75136;BME280;63707;52.212;9.540;2023-03-01T04:05:22;101428.25;;;-4.73;100.00
75136;BME280;63707;52.212;9.540;2023-03-01T04:07:47;101429.31;;;-4.58;100.00
75136;BME280;63707;52.212;9.540;2023-03-01T04:10:16;101428.31;;;-4.38;100.00
75136;BME280;63707;52.212;9.540;2023-03-01T04:12:42;101437.53;;;-4.46;100.00
75136;BME280;63707;52.212;9.540;2023-03-01T04:15:11;101433.09;;;-4.28;100.00
75136;BME280;63707;52.212;9.540;2023-03-01T04:17:39;101431.59;;;-4.51;100.00
75136;BME280;63707;52.212;9.540;2023-03-01T04:20:06;101438.72;;;-4.87;100.00
75136;BME280;63707;52.212;9.540;2023-03-01T04:22:32;101434.56;;;-4.93;100.00
75136;BME280;63707;52.212;9.540;2023-03-01T04:24:58;101422.78;;;-5.06;100.00
75136;BME280;63707;52.212;9.540;2023-03-01T04:27:28;101423.34;;;-4.99;100.00
75136;BME280;63707;52.212;9.540;2023-03-01T04:29:54;101429.31;;;-4.94;100.00
75136;BME280;63707;52.212;9.540;2023-03-01T04:32:19;101432.00;;;-5.13;100.00
75136;BME280;63707;52.212;9.540;2023-03-01T04:34:44;101439.50;;;-5.23;100.00
75136;BME280;63707;52.212;9.540;2023-03-01T04:37:10;101442.31;;;-5.26;100.00
75136;BME280;63707;52.212;9.540;2023-03-01T04:39:35;101433.63;;;-5.29;100.00
75136;BME280;63707;52.212;9.540;2023-03-01T04:42:10;101441.31;;;-5.42;100.00
75136;BME280;63707;52.212;9.540;2023-03-01T04:44:37;101434.94;;;-5.38;100.00
75136;BME280;63707;52.212;9.540;2023-03-01T04:47:02;101445.47;;;-5.55;100.00
75136;BME280;63707;52.212;9.540;2023-03-01T04:49:28;101440.59;;;-5.46;100.00
75136;BME280;63707;52.212;9.540;2023-03-01T04:51:54;101444.59;;;-5.56;100.00
75136;BME280;63707;52.212;9.540;2023-03-01T04:54:19;101434.78;;;-5.54;100.00
75136;BME280;63707;52.212;9.540;2023-03-01T04:56:45;101436.22;;;-5.47;100.00
75136;BME280;63707;52.212;9.540;2023-03-01T04:59:10;101437.66;;;-5.40;100.00
75136;BME280;63707;52.212;9.540;2023-03-01T05:01:39;101427.47;;;-5.30;100.00
75136;BME280;63707;52.212;9.540;2023-03-01T05:04:08;101434.34;;;-5.45;100.00
75136;BME280;63707;52.212;9.540;2023-03-01T05:06:38;101433.84;;;-5.34;100.00
75136;BME280;63707;52.212;9.540;2023-03-01T05:09:04;101434.56;;;-5.30;100.00
75136;BME280;63707;52.212;9.540;2023-03-01T05:11:30;101427.09;;;-5.22;100.00
75136;BME280;63707;52.212;9.540;2023-03-01T05:13:59;101434.94;;;-5.19;100.00
75136;BME280;63707;52.212;9.540;2023-03-01T05:16:24;101428.81;;;-5.21;100.00
75136;BME280;63707;52.212;9.540;2023-03-01T05:18:51;101425.00;;;-5.34;100.00
75136;BME280;63707;52.212;9.540;2023-03-01T05:21:17;101423.44;;;-5.39;100.00
75136;BME280;63707;52.212;9.540;2023-03-01T05:23:42;101416.69;;;-5.46;100.00
75136;BME280;63707;52.212;9.540;2023-03-01T05:26:08;101414.91;;;-5.45;100.00
75136;BME280;63707;52.212;9.540;2023-03-01T05:28:34;101417.47;;;-5.44;100.00
75136;BME280;63707;52.212;9.540;2023-03-01T05:31:00;101414.75;;;-5.42;100.00
75136;BME280;63707;52.212;9.540;2023-03-01T05:33:26;101414.81;;;-5.44;100.00
75136;BME280;63707;52.212;9.540;2023-03-01T05:35:53;101412.97;;;-5.42;100.00
75136;BME280;63707;52.212;9.540;2023-03-01T05:38:20;101407.72;;;-5.43;100.00
75136;BME280;63707;52.212;9.540;2023-03-01T05:40:47;101410.22;;;-5.40;100.00
75136;BME280;63707;52.212;9.540;2023-03-01T05:43:14;101411.31;;;-5.44;100.00
75136;BME280;63707;52.212;9.540;2023-03-01T05:45:41;101403.72;;;-5.52;100.00
75136;BME280;63707;52.212;9.540;2023-03-01T05:48:08;101410.03;;;-5.54;100.00
75136;BME280;63707;52.212;9.540;2023-03-01T05:50:36;101419.13;;;-5.60;100.00
75136;BME280;63707;52.212;9.540;2023-03-01T05:53:05;101422.44;;;-5.36;100.00
75136;BME280;63707;52.212;9.540;2023-03-01T05:55:31;101423.50;;;-5.40;100.00
75136;BME280;63707;52.212;9.540;2023-03-01T05:57:58;101427.38;;;-5.47;100.00
75136;BME280;63707;52.212;9.540;2023-03-01T06:00:24;101425.59;;;-5.47;100.00
75136;BME280;63707;52.212;9.540;2023-03-01T06:02:50;101424.78;;;-5.30;100.00
75136;BME280;63707;52.212;9.540;2023-03-01T06:05:17;101424.16;;;-5.35;100.00
75136;BME280;63707;52.212;9.540;2023-03-01T06:07:43;101423.66;;;-5.43;100.00
75136;BME280;63707;52.212;9.540;2023-03-01T06:10:11;101417.28;;;-5.39;100.00
75136;BME280;63707;52.212;9.540;2023-03-01T06:12:39;101419.63;;;-5.52;100.00
75136;BME280;63707;52.212;9.540;2023-03-01T06:15:06;101426.16;;;-5.59;100.00
75136;BME280;63707;52.212;9.540;2023-03-01T06:17:33;101424.22;;;-5.36;100.00
75136;BME280;63707;52.212;9.540;2023-03-01T06:20:03;101430.41;;;-5.36;100.00
75136;BME280;63707;52.212;9.540;2023-03-01T06:22:29;101422.94;;;-5.47;100.00
75136;BME280;63707;52.212;9.540;2023-03-01T06:24:54;101437.50;;;-5.36;100.00
75136;BME280;63707;52.212;9.540;2023-03-01T06:27:21;101424.31;;;-5.19;100.00
75136;BME280;63707;52.212;9.540;2023-03-01T06:29:47;101421.28;;;-5.12;100.00
75136;BME280;63707;52.212;9.540;2023-03-01T06:32:12;101420.44;;;-5.12;100.00
75136;BME280;63707;52.212;9.540;2023-03-01T06:34:38;101423.91;;;-4.93;100.00
75136;BME280;63707;52.212;9.540;2023-03-01T06:37:03;101418.22;;;-4.85;100.00
75136;BME280;63707;52.212;9.540;2023-03-01T06:39:30;101416.75;;;-4.73;100.00
75136;BME280;63707;52.212;9.540;2023-03-01T06:41:55;101423.44;;;-4.65;100.00
75136;BME280;63707;52.212;9.540;2023-03-01T06:44:23;101418.06;;;-4.46;100.00
75136;BME280;63707;52.212;9.540;2023-03-01T06:46:48;101417.81;;;-4.41;100.00
75136;BME280;63707;52.212;9.540;2023-03-01T06:49:14;101414.94;;;-4.20;100.00
75136;BME280;63707;52.212;9.540;2023-03-01T06:51:41;101409.50;;;-3.84;100.00
75136;BME280;63707;52.212;9.540;2023-03-01T06:54:07;101419.19;;;-3.83;100.00
75136;BME280;63707;52.212;9.540;2023-03-01T06:56:32;101414.44;;;-3.76;100.00
75136;BME280;63707;52.212;9.540;2023-03-01T06:58:58;101419.09;;;-3.64;100.00
75136;BME280;63707;52.212;9.540;2023-03-01T07:01:25;101417.53;;;-3.68;100.00
75136;BME280;63707;52.212;9.540;2023-03-01T07:03:50;101419.00;;;-3.29;100.00
75136;BME280;63707;52.212;9.540;2023-03-01T07:06:16;101411.78;;;-3.11;100.00
75136;BME280;63707;52.212;9.540;2023-03-01T07:08:43;101417.53;;;-3.19;100.00
75136;BME280;63707;52.212;9.540;2023-03-01T07:11:08;101416.84;;;-3.07;100.00
75136;BME280;63707;52.212;9.540;2023-03-01T07:13:34;101409.69;;;-2.91;100.00
75136;BME280;63707;52.212;9.540;2023-03-01T07:16:00;101397.06;;;-3.03;100.00
75136;BME280;63707;52.212;9.540;2023-03-01T07:18:27;101398.94;;;-2.43;100.00
75136;BME280;63707;52.212;9.540;2023-03-01T07:20:52;101403.34;;;-2.12;100.00
75136;BME280;63707;52.212;9.540;2023-03-01T07:23:18;101398.59;;;-1.93;100.00
75136;BME280;63707;52.212;9.540;2023-03-01T07:25:43;101399.28;;;-1.61;100.00
75136;BME280;63707;52.212;9.540;2023-03-01T07:28:09;101393.69;;;-1.01;100.00
75136;BME280;63707;52.212;9.540;2023-03-01T07:30:34;101392.06;;;-1.04;100.00
75136;BME280;63707;52.212;9.540;2023-03-01T07:33:01;101391.09;;;-0.88;100.00
75136;BME280;63707;52.212;9.540;2023-03-01T07:35:28;101382.47;;;-0.40;100.00
75136;BME280;63707;52.212;9.540;2023-03-01T07:37:53;101376.16;;;-0.39;100.00
75136;BME280;63707;52.212;9.540;2023-03-01T07:40:19;101389.31;;;-0.75;100.00
75136;BME280;63707;52.212;9.540;2023-03-01T07:42:45;101381.59;;;-0.80;100.00
75136;BME280;63707;52.212;9.540;2023-03-01T07:45:11;101385.13;;;-0.79;100.00
75136;BME280;63707;52.212;9.540;2023-03-01T07:47:36;101376.41;;;-0.56;100.00
75136;BME280;63707;52.212;9.540;2023-03-01T07:50:03;101374.38;;;0.51;100.00
75136;BME280;63707;52.212;9.540;2023-03-01T07:52:30;101376.03;;;1.14;100.00
75136;BME280;63707;52.212;9.540;2023-03-01T07:54:56;101365.53;;;3.69;100.00
75136;BME280;63707;52.212;9.540;2023-03-01T07:57:21;101368.16;;;4.43;100.00
75136;BME280;63707;52.212;9.540;2023-03-01T07:59:47;101356.13;;;4.97;100.00
75136;BME280;63707;52.212;9.540;2023-03-01T08:02:12;101352.91;;;8.35;100.00
75136;BME280;63707;52.212;9.540;2023-03-01T08:04:38;101358.22;;;7.57;100.00
75136;BME280;63707;52.212;9.540;2023-03-01T08:07:04;101356.78;;;7.36;100.00
75136;BME280;63707;52.212;9.540;2023-03-01T08:09:34;101349.41;;;8.77;100.00
75136;BME280;63707;52.212;9.540;2023-03-01T08:11:59;101357.13;;;9.56;100.00
75136;BME280;63707;52.212;9.540;2023-03-01T08:14:25;101362.75;;;6.94;100.00
75136;BME280;63707;52.212;9.540;2023-03-01T08:16:52;101350.69;;;9.90;100.00
75136;BME280;63707;52.212;9.540;2023-03-01T08:19:18;101351.72;;;10.29;99.87
75136;BME280;63707;52.212;9.540;2023-03-01T08:21:43;101343.38;;;10.23;87.57
75136;BME280;63707;52.212;9.540;2023-03-01T08:24:09;101349.78;;;10.62;84.36
75136;BME280;63707;52.212;9.540;2023-03-01T08:26:38;101339.91;;;10.61;76.97
75136;BME280;63707;52.212;9.540;2023-03-01T08:29:04;101343.88;;;9.53;86.24
75136;BME280;63707;52.212;9.540;2023-03-01T08:31:32;101339.88;;;11.09;78.17
75136;BME280;63707;52.212;9.540;2023-03-01T08:33:59;101333.25;;;11.03;71.47
75136;BME280;63707;52.212;9.540;2023-03-01T08:36:27;101325.19;;;12.09;69.19
75136;BME280;63707;52.212;9.540;2023-03-01T08:38:54;101342.25;;;10.72;68.43
75136;BME280;63707;52.212;9.540;2023-03-01T08:41:20;101336.47;;;11.07;65.40
75136;BME280;63707;52.212;9.540;2023-03-01T08:43:47;101337.16;;;11.09;68.07
75136;BME280;63707;52.212;9.540;2023-03-01T08:46:13;101322.88;;;11.83;63.91
75136;BME280;63707;52.212;9.540;2023-03-01T08:48:39;101337.28;;;11.46;68.04
75136;BME280;63707;52.212;9.540;2023-03-01T08:51:08;101334.03;;;10.81;63.55
75136;BME280;63707;52.212;9.540;2023-03-01T08:53:34;101334.41;;;12.60;59.84
75136;BME280;63707;52.212;9.540;2023-03-01T08:56:00;101329.00;;;12.97;58.01
75136;BME280;63707;52.212;9.540;2023-03-01T08:58:26;101326.84;;;12.33;58.47
75136;BME280;63707;52.212;9.540;2023-03-01T09:00:53;101339.41;;;10.58;69.05
75136;BME280;63707;52.212;9.540;2023-03-01T09:03:18;101334.91;;;11.43;64.47
75136;BME280;63707;52.212;9.540;2023-03-01T09:05:43;101344.56;;;9.79;70.48
75136;BME280;63707;52.212;9.540;2023-03-01T09:08:11;101334.59;;;10.68;60.27
75136;BME280;63707;52.212;9.540;2023-03-01T09:10:37;101329.59;;;13.43;53.50
75136;BME280;63707;52.212;9.540;2023-03-01T09:13:03;101335.19;;;12.17;64.34
75136;BME280;63707;52.212;9.540;2023-03-01T09:15:29;101355.44;;;9.63;66.28
75136;BME280;63707;52.212;9.540;2023-03-01T09:17:55;101348.06;;;11.40;65.23
75136;BME280;63707;52.212;9.540;2023-03-01T09:20:21;101350.88;;;9.96;73.75
75136;BME280;63707;52.212;9.540;2023-03-01T09:22:46;101346.59;;;10.98;69.53
75136;BME280;63707;52.212;9.540;2023-03-01T09:25:12;101348.66;;;10.40;71.36
75136;BME280;63707;52.212;9.540;2023-03-01T09:27:37;101344.88;;;10.97;71.76
75136;BME280;63707;52.212;9.540;2023-03-01T09:30:03;101344.03;;;10.96;70.59
75136;BME280;63707;52.212;9.540;2023-03-01T09:32:30;101332.31;;;12.48;63.74
75136;BME280;63707;52.212;9.540;2023-03-01T09:34:57;101353.94;;;7.73;86.10
75136;BME280;63707;52.212;9.540;2023-03-01T09:37:32;101343.19;;;9.75;77.63
75136;BME280;63707;52.212;9.540;2023-03-01T09:39:57;101317.03;;;12.68;64.88
75136;BME280;63707;52.212;9.540;2023-03-01T09:42:23;101329.47;;;8.08;88.98
75136;BME280;63707;52.212;9.540;2023-03-01T09:44:52;101299.09;;;13.67;59.71
75136;BME280;63707;52.212;9.540;2023-03-01T09:47:21;101302.75;;;11.99;54.42
75136;BME280;63707;52.212;9.540;2023-03-01T09:49:57;101317.44;;;8.37;69.76
75136;BME280;63707;52.212;9.540;2023-03-01T09:52:29;101309.38;;;11.36;62.11
75136;BME280;63707;52.212;9.540;2023-03-01T09:54:58;101300.75;;;12.60;53.90
75136;BME280;63707;52.212;9.540;2023-03-01T09:57:30;101299.19;;;12.13;56.13
75136;BME280;63707;52.212;9.540;2023-03-01T10:00:10;101284.13;;;15.42;49.27
75136;BME280;63707;52.212;9.540;2023-03-01T10:02:42;101316.34;;;8.30;80.87
75136;BME280;63707;52.212;9.540;2023-03-01T10:05:29;101312.84;;;8.63;78.92
75136;BME280;63707;52.212;9.540;2023-03-01T10:08:14;101315.28;;;10.14;68.40
75136;BME280;63707;52.212;9.540;2023-03-01T10:10:46;101297.00;;;11.71;58.24
75136;BME280;63707;52.212;9.540;2023-03-01T10:13:16;101295.03;;;13.63;54.12
75136;BME280;63707;52.212;9.540;2023-03-01T10:15:45;101304.81;;;11.74;57.04
75136;BME280;63707;52.212;9.540;2023-03-01T10:18:15;101299.44;;;15.10;51.71
75136;BME280;63707;52.212;9.540;2023-03-01T10:20:48;101317.94;;;10.55;67.38
75136;BME280;63707;52.212;9.540;2023-03-01T10:23:16;101311.09;;;11.29;62.01
75136;BME280;63707;52.212;9.540;2023-03-01T10:25:50;101313.03;;;9.28;57.81
75136;BME280;63707;52.212;9.540;2023-03-01T10:28:26;101315.97;;;9.92;63.66
75136;BME280;63707;52.212;9.540;2023-03-01T10:30:53;101316.59;;;9.12;67.57
75136;BME280;63707;52.212;9.540;2023-03-01T10:33:21;101311.25;;;11.58;57.13
75136;BME280;63707;52.212;9.540;2023-03-01T10:35:50;101308.13;;;10.13;59.36
75136;BME280;63707;52.212;9.540;2023-03-01T10:38:17;101314.44;;;10.77;58.93
75136;BME280;63707;52.212;9.540;2023-03-01T10:40:52;101318.97;;;9.07;63.71
75136;BME280;63707;52.212;9.540;2023-03-01T10:43:19;101310.41;;;11.81;61.52
75136;BME280;63707;52.212;9.540;2023-03-01T10:45:44;101305.78;;;12.04;50.93
75136;BME280;63707;52.212;9.540;2023-03-01T10:48:12;101305.53;;;12.73;51.44
75136;BME280;63707;52.212;9.540;2023-03-01T10:50:39;101313.63;;;12.22;51.60
75136;BME280;63707;52.212;9.540;2023-03-01T10:53:21;101306.78;;;11.12;54.69
75136;BME280;63707;52.212;9.540;2023-03-01T10:55:57;101302.72;;;12.81;52.25
75136;BME280;63707;52.212;9.540;2023-03-01T10:58:23;101305.78;;;10.73;59.32
75136;BME280;63707;52.212;9.540;2023-03-01T11:00:51;101297.91;;;13.55;50.05
75136;BME280;63707;52.212;9.540;2023-03-01T11:03:21;101289.09;;;16.13;42.82
75136;BME280;63707;52.212;9.540;2023-03-01T11:05:57;101288.00;;;14.25;46.59
75136;BME280;63707;52.212;9.540;2023-03-01T11:08:39;101297.03;;;12.09;50.95
75136;BME280;63707;52.212;9.540;2023-03-01T11:11:13;101305.28;;;11.32;63.72
75136;BME280;63707;52.212;9.540;2023-03-01T11:13:50;101290.44;;;12.77;52.07
75136;BME280;63707;52.212;9.540;2023-03-01T11:16:23;101299.97;;;10.05;60.88
75136;BME280;63707;52.212;9.540;2023-03-01T11:18:56;101300.25;;;11.21;59.22
75136;BME280;63707;52.212;9.540;2023-03-01T11:21:22;101290.53;;;10.87;51.79
75136;BME280;63707;52.212;9.540;2023-03-01T11:23:50;101296.81;;;11.50;49.95
75136;BME280;63707;52.212;9.540;2023-03-01T11:26:17;101285.34;;;12.15;50.20
75136;BME280;63707;52.212;9.540;2023-03-01T11:28:49;101293.50;;;11.09;51.71
75136;BME280;63707;52.212;9.540;2023-03-01T11:31:16;101258.81;;;16.06;40.07
75136;BME280;63707;52.212;9.540;2023-03-01T11:33:47;101274.72;;;12.49;49.50
75136;BME280;63707;52.212;9.540;2023-03-01T11:36:19;101270.75;;;12.81;44.33
75136;BME280;63707;52.212;9.540;2023-03-01T11:38:51;101268.97;;;12.59;48.56
75136;BME280;63707;52.212;9.540;2023-03-01T11:41:21;101261.94;;;14.70;43.83
75136;BME280;63707;52.212;9.540;2023-03-01T11:43:52;101262.38;;;13.83;43.57
75136;BME280;63707;52.212;9.540;2023-03-01T11:46:39;101264.19;;;11.56;49.56
75136;BME280;63707;52.212;9.540;2023-03-01T11:49:24;101261.25;;;12.48;48.66
75136;BME280;63707;52.212;9.540;2023-03-01T11:51:58;101274.13;;;9.85;53.99
75136;BME280;63707;52.212;9.540;2023-03-01T11:54:39;101279.72;;;9.91;60.48
75136;BME280;63707;52.212;9.540;2023-03-01T11:57:15;101276.47;;;10.28;52.09
75136;BME280;63707;52.212;9.540;2023-03-01T11:59:57;101276.84;;;9.85;56.14
75136;BME280;63707;52.212;9.540;2023-03-01T12:02:45;101278.56;;;9.77;66.74
75136;BME280;63707;52.212;9.540;2023-03-01T12:05:28;101259.38;;;11.13;59.07
75136;BME280;63707;52.212;9.540;2023-03-01T12:08:08;101254.38;;;13.03;48.94
75136;BME280;63707;52.212;9.540;2023-03-01T12:10:43;101257.94;;;13.03;44.24
75136;BME280;63707;52.212;9.540;2023-03-01T12:13:23;101248.06;;;14.15;44.59
75136;BME280;63707;52.212;9.540;2023-03-01T12:16:11;101261.88;;;9.40;56.40
75136;BME280;63707;52.212;9.540;2023-03-01T12:19:21;101253.38;;;9.84;63.64
75136;BME280;63707;52.212;9.540;2023-03-01T12:22:06;101229.00;;;15.57;41.48
75136;BME280;63707;52.212;9.540;2023-03-01T12:24:55;101219.47;;;15.20;41.83
75136;BME280;63707;52.212;9.540;2023-03-01T12:27:40;101222.19;;;12.83;45.37
75136;BME280;63707;52.212;9.540;2023-03-01T12:30:20;101223.81;;;12.99;49.69
75136;BME280;63707;52.212;9.540;2023-03-01T12:33:03;101220.69;;;13.02;42.84
75136;BME280;63707;52.212;9.540;2023-03-01T12:35:45;101213.91;;;14.46;41.71
75136;BME280;63707;52.212;9.540;2023-03-01T12:38:23;101205.38;;;14.34;41.96
75136;BME280;63707;52.212;9.540;2023-03-01T12:41:05;101215.63;;;14.54;42.58
75136;BME280;63707;52.212;9.540;2023-03-01T12:43:50;101196.56;;;14.93;38.58
75136;BME280;63707;52.212;9.540;2023-03-01T12:46:28;101205.19;;;12.88;42.35
75136;BME280;63707;52.212;9.540;2023-03-01T12:49:04;101197.13;;;14.28;38.77
75136;BME280;63707;52.212;9.540;2023-03-01T12:51:34;101191.22;;;13.96;40.50
75136;BME280;63707;52.212;9.540;2023-03-01T12:54:05;101200.41;;;13.33;40.54